createdAt,value
2023-03-29T00:00:14.569Z,97478.94
2023-03-29T00:02:48.597Z,97481.06
2023-03-29T00:05:18.931Z,97481.88
2023-03-29T00:07:47.417Z,97485.69
2023-03-29T00:10:15.929Z,97473.56
2023-03-29T00:12:45.773Z,97463.06
2023-03-29T00:15:14.670Z,97454.94
2023-03-29T00:17:43.147Z,97464.91
2023-03-29T00:20:13.747Z,97467.34
2023-03-29T00:22:43.589Z,97460.81
2023-03-29T00:25:13.066Z,97463.25
2023-03-29T00:27:42.066Z,97451.84
2023-03-29T00:30:15.063Z,97448.84
2023-03-29T00:32:43.571Z,97454.56
2023-03-29T00:35:12.705Z,97449.97
2023-03-29T00:37:41.453Z,97444.06
2023-03-29T00:40:13.086Z,97449.19
2023-03-29T00:42:46.530Z,97435.97
2023-03-29T00:45:27.700Z,97428.69
2023-03-29T00:48:00.226Z,97431.09
2023-03-29T00:50:34.357Z,97431.63
2023-03-29T00:53:11.052Z,97427.31
2023-03-29T00:55:45.612Z,97431.59
2023-03-29T00:58:22.128Z,97427.56
2023-03-29T01:01:02.427Z,97418.09
2023-03-29T01:03:41.551Z,97417.28
2023-03-29T01:06:12.541Z,97416.44
2023-03-29T01:08:46.080Z,97419.09
2023-03-29T01:11:22.353Z,97413.13
2023-03-29T01:14:00.218Z,97418.00
2023-03-29T01:16:33.515Z,97418.03
2023-03-29T01:19:02.447Z,97415.09
2023-03-29T01:21:36.655Z,97404.03
2023-03-29T01:24:37.982Z,97394.00
2023-03-29T01:27:15.795Z,97381.84
2023-03-29T01:29:54.126Z,97379.66
2023-03-29T01:32:35.082Z,97373.19
2023-03-29T01:35:11.375Z,97372.69
2023-03-29T01:37:48.229Z,97370.50
2023-03-29T01:40:17.047Z,97359.19
2023-03-29T01:42:54.517Z,97356.19
2023-03-29T01:45:35.659Z,97345.16
2023-03-29T01:48:14.762Z,97342.19
2023-03-29T01:50:48.412Z,97343.81
2023-03-29T01:53:24.885Z,97338.41
2023-03-29T01:55:57.695Z,97337.63
2023-03-29T01:58:35.217Z,97334.41
2023-03-29T02:01:10.418Z,97329.00
2023-03-29T02:03:43.879Z,97317.16
2023-03-29T02:06:17.155Z,97319.03
2023-03-29T02:08:47.587Z,97320.91
2023-03-29T02:11:16.644Z,97315.53
2023-03-29T02:13:45.495Z,97320.91
2023-03-29T02:16:17.689Z,97318.22
2023-03-29T02:18:50.315Z,97313.91
2023-03-29T02:21:30.055Z,97314.97
2023-03-29T02:24:06.492Z,97309.81
2023-03-29T02:26:36.698Z,97317.13
2023-03-29T02:31:42.219Z,97314.94
2023-03-29T02:34:21.464Z,97316.56
2023-03-29T02:36:54.589Z,97305.22
2023-03-29T02:39:26.274Z,97301.41
2023-03-29T02:41:57.230Z,97307.63
2023-03-29T02:44:29.414Z,97290.66
2023-03-29T02:47:05.468Z,97287.94
2023-03-29T02:49:35.645Z,97286.31
2023-03-29T02:52:13.753Z,97281.72
2023-03-29T02:54:45.392Z,97274.19
2023-03-29T02:57:13.878Z,97273.38
2023-03-29T02:59:44.787Z,97279.06
2023-03-29T03:02:15.373Z,97274.75
2023-03-29T03:04:44.922Z,97264.22
2023-03-29T03:07:13.844Z,97259.59
2023-03-29T03:09:42.756Z,97259.91
2023-03-29T03:12:11.568Z,97256.38
2023-03-29T03:14:40.677Z,97253.69
2023-03-29T03:17:09.234Z,97258.81
2023-03-29T03:19:39.422Z,97268.03
2023-03-29T03:22:10.057Z,97256.69
2023-03-29T03:24:39.406Z,97250.19
2023-03-29T03:27:08.638Z,97254.53
2023-03-29T03:29:38.692Z,97254.25
2023-03-29T03:32:09.986Z,97255.59
2023-03-29T03:35:00.595Z,97263.44
2023-03-29T03:37:29.795Z,97250.75
2023-03-29T03:39:59.458Z,97241.03
2023-03-29T03:42:30.080Z,97234.56
2023-03-29T03:45:01.097Z,97236.16
2023-03-29T03:47:48.582Z,97235.38
2023-03-29T03:50:38.707Z,97232.41
2023-03-29T03:53:08.438Z,97223.75
2023-03-29T03:55:57.323Z,97215.66
2023-03-29T03:58:30.486Z,97227.25
2023-03-29T04:00:59.907Z,97223.75
2023-03-29T04:03:39.511Z,97212.97
2023-03-29T04:06:13.239Z,97219.16
2023-03-29T04:09:02.408Z,97205.13
2023-03-29T04:11:38.014Z,97200.78
2023-03-29T04:14:07.793Z,97212.38
2023-03-29T04:16:55.639Z,97197.03
2023-03-29T04:19:43.930Z,97192.16
2023-03-29T04:22:13.878Z,97196.19
2023-03-29T04:24:44.264Z,97191.84
2023-03-29T04:27:31.240Z,97185.66
2023-03-29T04:30:02.216Z,97183.16
2023-03-29T04:32:49.344Z,97194.78
2023-03-29T04:35:19.396Z,97201.53
2023-03-29T04:37:51.595Z,97199.66
2023-03-29T04:40:22.548Z,97191.03
2023-03-29T04:43:03.664Z,97198.84
2023-03-29T04:45:33.258Z,97191.59
2023-03-29T04:48:13.509Z,97191.59
2023-03-29T04:50:47.890Z,97172.41
2023-03-29T04:53:20.166Z,97183.75
2023-03-29T04:55:49.480Z,97178.63
2023-03-29T04:58:32.256Z,97181.31
2023-03-29T05:01:02.045Z,97185.38
2023-03-29T05:03:36.478Z,97181.63
2023-03-29T05:06:13.769Z,97187.28
2023-03-29T05:08:44.780Z,97191.34
2023-03-29T05:11:25.427Z,97183.53
2023-03-29T05:13:55.991Z,97179.19
2023-03-29T05:16:26.426Z,97176.78
2023-03-29T05:18:58.033Z,97170.53
2023-03-29T05:21:28.368Z,97172.44
2023-03-29T05:24:00.771Z,97170.56
2023-03-29T05:26:54.149Z,97166.50
2023-03-29T05:29:23.584Z,97175.69
2023-03-29T05:32:00.331Z,97167.84
2023-03-29T05:34:29.799Z,97168.09
2023-03-29T05:37:01.658Z,97171.34
2023-03-29T05:39:38.803Z,97166.19
2023-03-29T05:42:07.817Z,97161.63
2023-03-29T05:44:47.945Z,97169.72
2023-03-29T05:47:21.393Z,97160.53
2023-03-29T05:49:49.885Z,97163.22
2023-03-29T05:52:22.633Z,97164.00
2023-03-29T05:54:52.417Z,97166.97
2023-03-29T05:57:22.192Z,97155.03
2023-03-29T05:59:50.704Z,97161.81
2023-03-29T06:02:19.568Z,97161.78
2023-03-29T06:04:54.261Z,97155.56
2023-03-29T06:07:25.560Z,97168.53
2023-03-29T06:10:21.772Z,97162.84
2023-03-29T06:12:56.543Z,97162.56
2023-03-29T06:15:27.666Z,97163.09
2023-03-29T06:18:03.690Z,97163.34
2023-03-29T06:20:32.906Z,97160.13
2023-03-29T06:23:08.051Z,97161.47
2023-03-29T06:25:38.176Z,97159.56
2023-03-29T06:28:07.821Z,97168.75
2023-03-29T06:30:37.419Z,97161.97
2023-03-29T06:33:07.272Z,97170.03
2023-03-29T06:35:52.222Z,97176.59
2023-03-29T06:38:28.692Z,97180.91
2023-03-29T06:41:05.423Z,97176.56
2023-03-29T06:43:53.612Z,97177.63
2023-03-29T06:46:25.322Z,97181.44
2023-03-29T06:48:58.940Z,97182.16
2023-03-29T06:51:35.723Z,97183.56
2023-03-29T06:54:05.472Z,97182.13
2023-03-29T06:56:36.423Z,97186.22
2023-03-29T06:59:08.499Z,97185.66
2023-03-29T07:02:03.187Z,97187.28
2023-03-29T07:04:57.814Z,97193.25
2023-03-29T07:07:44.101Z,97199.16
2023-03-29T07:10:28.187Z,97201.06
2023-03-29T07:13:17.326Z,97190.69
2023-03-29T07:15:46.670Z,97192.28
2023-03-29T07:18:25.258Z,97200.63
2023-03-29T07:20:53.903Z,97202.69
2023-03-29T07:23:22.570Z,97201.50
2023-03-29T07:25:52.677Z,97195.44
2023-03-29T07:28:22.811Z,97200.75
2023-03-29T07:30:55.031Z,97198.97
2023-03-29T07:33:24.383Z,97199.78
2023-03-29T07:35:57.345Z,97203.50
2023-03-29T07:38:26.479Z,97206.06
2023-03-29T07:41:04.442Z,97205.97
2023-03-29T07:43:54.622Z,97209.38
2023-03-29T07:46:26.290Z,97205.91
2023-03-29T07:48:56.712Z,97206.19
2023-03-29T07:51:25.552Z,97201.69
2023-03-29T07:54:01.888Z,97196.88
2023-03-29T07:56:38.965Z,97200.81
2023-03-29T07:59:20.768Z,97202.66
2023-03-29T08:02:01.619Z,97203.69
2023-03-29T08:04:34.902Z,97196.84
2023-03-29T08:07:21.193Z,97199.34
2023-03-29T08:10:10.790Z,97189.63
2023-03-29T08:12:58.147Z,97191.53
2023-03-29T08:15:42.180Z,97187.81
2023-03-29T08:18:20.306Z,97184.56
2023-03-29T08:20:49.351Z,97194.81
2023-03-29T08:23:18.066Z,97191.06
2023-03-29T08:26:02.775Z,97203.69
2023-03-29T08:28:32.332Z,97201.66
2023-03-29T08:31:04.194Z,97198.69
2023-03-29T08:33:33.368Z,97193.31
2023-03-29T08:36:28.246Z,97202.44
2023-03-29T08:39:02.040Z,97198.47
2023-03-29T08:41:52.581Z,97196.34
2023-03-29T08:44:48.626Z,97207.56
2023-03-29T08:47:30.653Z,97201.44
2023-03-29T08:50:01.513Z,97198.06
2023-03-29T08:52:44.397Z,97197.06
2023-03-29T08:55:37.272Z,97194.41
2023-03-29T08:58:31.552Z,97195.81
2023-03-29T09:01:04.095Z,97196.88
2023-03-29T09:03:48.974Z,97193.03
2023-03-29T09:06:27.524Z,97196.75
2023-03-29T09:09:04.566Z,97193.94
2023-03-29T09:12:02.758Z,97202.28
2023-03-29T09:15:06.963Z,97197.44
2023-03-29T09:17:51.778Z,97195.88
2023-03-29T09:20:44.667Z,97195.19
2023-03-29T09:23:45.306Z,97190.78
2023-03-29T09:26:36.061Z,97198.50
2023-03-29T09:29:37.414Z,97197.94
2023-03-29T09:32:19.963Z,97202.28
2023-03-29T09:35:04.517Z,97198.84
2023-03-29T09:37:39.500Z,97199.53
2023-03-29T09:40:14.723Z,97185.00
2023-03-29T09:43:01.847Z,97186.38
2023-03-29T09:45:30.837Z,97189.25
2023-03-29T09:48:07.981Z,97192.53
2023-03-29T09:50:41.759Z,97186.59
2023-03-29T09:53:16.970Z,97176.00
2023-03-29T09:55:55.427Z,97173.06
2023-03-29T09:58:38.750Z,97176.06
2023-03-29T10:01:10.523Z,97168.25
2023-03-29T10:03:41.546Z,97168.53
2023-03-29T10:06:15.819Z,97162.38
2023-03-29T10:08:56.901Z,97160.41
2023-03-29T10:11:33.515Z,97162.66
2023-03-29T10:14:05.534Z,97159.91
2023-03-29T10:16:40.044Z,97157.47
2023-03-29T10:19:22.802Z,97160.41
2023-03-29T10:21:52.903Z,97163.16
2023-03-29T10:24:25.134Z,97163.06
2023-03-29T10:26:57.034Z,97156.28
2023-03-29T10:29:27.917Z,97153.91
2023-03-29T10:31:56.681Z,97151.03
2023-03-29T10:34:28.189Z,97156.84
2023-03-29T10:37:01.200Z,97147.34
2023-03-29T10:39:35.862Z,97145.88
2023-03-29T10:42:06.047Z,97142.34
2023-03-29T10:44:38.662Z,97131.63
2023-03-29T10:47:20.201Z,97135.25
2023-03-29T10:49:56.473Z,97134.91
2023-03-29T10:52:26.995Z,97140.25
2023-03-29T10:54:59.259Z,97139.69
2023-03-29T10:57:42.740Z,97130.97
2023-03-29T11:00:24.536Z,97128.44
2023-03-29T11:03:42.046Z,97125.88
2023-03-29T11:06:26.345Z,97124.75
2023-03-29T11:08:59.869Z,97132.84
2023-03-29T11:12:12.264Z,97127.66
2023-03-29T11:14:56.265Z,97122.63
2023-03-29T11:17:51.105Z,97128.28
2023-03-29T11:20:29.819Z,97135.31
2023-03-29T11:23:16.428Z,97122.63
2023-03-29T11:25:58.853Z,97119.28
2023-03-29T11:28:42.220Z,97118.53
2023-03-29T11:31:25.912Z,97124.22
2023-03-29T11:34:18.327Z,97124.44
2023-03-29T11:37:01.129Z,97122.00
2023-03-29T11:39:45.229Z,97128.88
2023-03-29T11:42:21.499Z,97121.19
2023-03-29T11:44:55.806Z,97123.78
2023-03-29T11:47:30.638Z,97116.69
2023-03-29T11:50:06.493Z,97122.66
2023-03-29T11:52:40.911Z,97115.91
2023-03-29T11:55:16.289Z,97112.50
2023-03-29T11:57:53.118Z,97105.94
2023-03-29T12:00:31.625Z,97101.84
2023-03-29T12:03:08.278Z,97100.31
2023-03-29T12:05:45.226Z,97098.31
2023-03-29T12:08:19.805Z,97111.16
2023-03-29T12:10:59.135Z,97096.75
2023-03-29T12:13:35.360Z,97087.03
2023-03-29T12:16:16.518Z,97095.31
2023-03-29T12:18:49.427Z,97099.47
2023-03-29T12:21:22.106Z,97098.56
2023-03-29T12:23:53.434Z,97105.91
2023-03-29T12:26:44.733Z,97096.06
2023-03-29T12:29:36.822Z,97078.78
2023-03-29T12:32:33.307Z,97080.66
2023-03-29T12:35:35.024Z,97085.50
2023-03-29T12:38:35.537Z,97082.06
2023-03-29T12:41:26.116Z,97076.91
2023-03-29T12:44:17.714Z,97082.19
2023-03-29T12:46:58.614Z,97074.63
2023-03-29T12:49:35.407Z,97066.16
2023-03-29T12:52:15.501Z,97078.66
2023-03-29T12:54:55.927Z,97075.91
2023-03-29T12:57:39.457Z,97068.09
2023-03-29T13:00:23.776Z,97059.75
2023-03-29T13:03:04.060Z,97059.41
2023-03-29T13:05:38.162Z,97058.84
2023-03-29T13:08:27.793Z,97063.38
2023-03-29T13:10:58.960Z,97059.88
2023-03-29T13:13:33.802Z,97057.47
2023-03-29T13:16:17.392Z,97057.44
2023-03-29T13:19:14.549Z,97058.19
2023-03-29T13:22:01.851Z,97061.16
2023-03-29T13:25:04.313Z,97058.34
2023-03-29T13:27:46.576Z,97061.69
2023-03-29T13:30:45.380Z,97058.47
2023-03-29T13:33:45.077Z,97052.63
2023-03-29T13:36:31.279Z,97045.22
2023-03-29T13:39:07.101Z,97049.59
2023-03-29T13:41:49.425Z,97051.88
2023-03-29T13:44:30.315Z,97045.56
2023-03-29T13:47:28.494Z,97040.97
2023-03-29T13:50:02.309Z,97032.38
2023-03-29T13:52:36.493Z,97031.00
2023-03-29T13:55:15.889Z,97030.75
2023-03-29T13:57:54.296Z,97028.53
2023-03-29T14:00:29.012Z,97033.16
2023-03-29T14:03:01.550Z,97031.69
2023-03-29T14:05:35.650Z,97019.13
2023-03-29T14:08:14.420Z,97020.31
2023-03-29T14:10:46.922Z,97015.84
2023-03-29T14:13:17.840Z,97013.25
2023-03-29T14:15:52.113Z,97016.50
2023-03-29T14:18:25.904Z,97017.91
2023-03-29T14:20:56.932Z,97024.34
2023-03-29T14:23:28.323Z,97015.69
2023-03-29T14:26:08.065Z,97009.25
2023-03-29T14:28:37.783Z,97015.03
2023-03-29T14:31:08.124Z,97008.53
2023-03-29T14:33:38.144Z,97016.28
2023-03-29T14:36:07.799Z,96997.38
2023-03-29T14:38:38.342Z,97000.56
2023-03-29T14:41:08.605Z,96995.94
2023-03-29T14:43:38.687Z,96990.72
2023-03-29T14:46:08.538Z,96995.97
2023-03-29T14:48:38.517Z,96991.31
2023-03-29T14:51:08.113Z,96985.25
2023-03-29T14:53:38.971Z,96975.63
2023-03-29T14:56:14.620Z,96979.44
2023-03-29T14:58:47.622Z,96981.56
2023-03-29T15:01:20.084Z,96986.03
2023-03-29T15:03:55.210Z,96981.00
2023-03-29T15:06:25.644Z,96980.72
2023-03-29T15:09:05.203Z,96979.41
2023-03-29T15:11:36.816Z,96989.53
2023-03-29T15:14:10.007Z,96977.94
2023-03-29T15:16:43.345Z,96979.66
2023-03-29T15:19:18.139Z,96976.47
2023-03-29T15:21:50.610Z,96969.72
2023-03-29T15:24:29.452Z,96964.09
2023-03-29T15:27:05.853Z,96971.22
2023-03-29T15:29:42.421Z,96967.13
2023-03-29T15:32:21.582Z,96957.63
2023-03-29T15:35:00.617Z,96961.94
2023-03-29T15:37:29.800Z,96957.22
2023-03-29T15:39:58.974Z,96955.00
2023-03-29T15:42:29.010Z,96948.25
2023-03-29T15:44:57.924Z,96946.63
2023-03-29T15:47:28.060Z,96947.41
2023-03-29T15:49:57.037Z,96949.56
2023-03-29T15:52:25.722Z,96943.41
2023-03-29T15:54:54.486Z,96941.59
2023-03-29T15:57:23.495Z,96934.13
2023-03-29T15:59:53.600Z,96934.59
2023-03-29T16:02:26.164Z,96934.16
2023-03-29T16:04:54.773Z,96934.28
2023-03-29T16:07:23.331Z,96936.75
2023-03-29T16:09:52.285Z,96939.03
2023-03-29T16:12:20.973Z,96935.06
2023-03-29T16:14:49.902Z,96931.81
2023-03-29T16:17:19.811Z,96932.28
2023-03-29T16:19:48.248Z,96929.63
2023-03-29T16:22:16.697Z,96930.16
2023-03-29T16:24:45.070Z,96934.22
2023-03-29T16:27:13.653Z,96927.66
2023-03-29T16:29:42.566Z,96924.31
2023-03-29T16:32:12.095Z,96921.72
2023-03-29T16:34:44.836Z,96919.34
2023-03-29T16:37:13.927Z,96917.50
2023-03-29T16:39:42.630Z,96919.69
2023-03-29T16:42:12.917Z,96922.66
2023-03-29T16:44:41.563Z,96915.91
2023-03-29T16:47:12.678Z,96925.28
2023-03-29T16:49:45.302Z,96920.16
2023-03-29T16:52:14.729Z,96917.25
2023-03-29T16:54:43.546Z,96917.97
2023-03-29T16:57:12.514Z,96923.66
2023-03-29T16:59:42.327Z,96920.13
2023-03-29T17:02:11.929Z,96929.88
2023-03-29T17:04:41.949Z,96919.56
2023-03-29T17:07:10.750Z,96921.72
2023-03-29T17:09:39.735Z,96922.41
2023-03-29T17:12:09.061Z,96913.72
2023-03-29T17:14:39.284Z,96919.44
2023-03-29T17:17:08.070Z,96916.88
2023-03-29T17:19:36.842Z,96916.28
2023-03-29T17:22:06.750Z,96909.63
2023-03-29T17:24:35.667Z,96919.59
2023-03-29T17:27:04.120Z,96920.38
2023-03-29T17:29:33.210Z,96915.22
2023-03-29T17:32:02.307Z,96918.66
2023-03-29T17:34:32.951Z,96920.25
2023-03-29T17:37:03.804Z,96921.06
2023-03-29T17:39:37.509Z,96915.13
2023-03-29T17:42:06.824Z,96918.19
2023-03-29T17:44:35.676Z,96921.63
2023-03-29T17:47:04.635Z,96927.31
2023-03-29T17:49:33.276Z,96930.72
2023-03-29T17:52:02.043Z,96934.72
2023-03-29T17:54:31.021Z,96924.91
2023-03-29T17:57:00.943Z,96931.41
2023-03-29T17:59:29.730Z,96934.03
2023-03-29T18:02:00.138Z,96939.84
2023-03-29T18:04:30.914Z,96931.28
2023-03-29T18:06:59.620Z,96939.50
2023-03-29T18:09:30.613Z,96940.50
2023-03-29T18:12:01.471Z,96941.19
2023-03-29T18:14:30.346Z,96943.59
2023-03-29T18:16:58.910Z,96938.78
2023-03-29T18:19:28.133Z,96946.22
2023-03-29T18:21:57.513Z,96944.94
2023-03-29T18:24:26.219Z,96946.75
2023-03-29T18:26:55.131Z,96945.13
2023-03-29T18:29:25.471Z,96950.50
2023-03-29T18:31:54.262Z,96954.03
2023-03-29T18:34:22.746Z,96954.31
2023-03-29T18:36:53.833Z,96948.63
2023-03-29T18:39:22.485Z,96948.22
2023-03-29T18:41:52.071Z,96951.81
2023-03-29T18:44:21.892Z,96949.72
2023-03-29T18:46:52.238Z,96944.78
2023-03-29T18:49:21.460Z,96948.84
2023-03-29T18:51:50.889Z,96947.25
2023-03-29T18:54:19.564Z,96944.50
2023-03-29T18:56:50.659Z,96948.84
2023-03-29T18:59:19.331Z,96945.84
2023-03-29T19:01:47.896Z,96955.03
2023-03-29T19:04:19.877Z,96962.66
2023-03-29T19:06:49.477Z,96950.75
2023-03-29T19:09:18.117Z,96951.88
2023-03-29T19:11:47.870Z,96946.06
2023-03-29T19:14:17.487Z,96957.38
2023-03-29T19:16:46.372Z,96955.25
2023-03-29T19:19:14.827Z,96949.78
2023-03-29T19:21:44.583Z,96939.34
2023-03-29T19:24:13.019Z,96929.72
2023-03-29T19:26:41.967Z,96930.22
2023-03-29T19:29:11.737Z,96934.09
2023-03-29T19:31:40.412Z,96936.41
2023-03-29T19:34:11.113Z,96928.44
2023-03-29T19:36:40.253Z,96925.88
2023-03-29T19:39:10.172Z,96918.69
2023-03-29T19:41:41.347Z,96927.56
2023-03-29T19:44:10.700Z,96924.66
2023-03-29T19:46:39.068Z,96915.13
2023-03-29T19:49:08.873Z,96914.31
2023-03-29T19:51:37.578Z,96911.06
2023-03-29T19:54:06.960Z,96912.16
2023-03-29T19:56:37.361Z,96904.91
2023-03-29T19:59:05.735Z,96908.59
2023-03-29T20:01:34.181Z,96911.47
2023-03-29T20:04:03.524Z,96913.88
2023-03-29T20:06:31.930Z,96914.34
2023-03-29T20:09:00.826Z,96914.16
2023-03-29T20:11:29.934Z,96919.81
2023-03-29T20:14:00.453Z,96921.06
2023-03-29T20:16:29.828Z,96923.47
2023-03-29T20:19:01.949Z,96925.41
2023-03-29T20:21:30.872Z,96928.94
2023-03-29T20:23:59.942Z,96920.59
2023-03-29T20:26:29.166Z,96898.91
2023-03-29T20:29:00.504Z,96894.97
2023-03-29T20:31:31.414Z,96896.66
2023-03-29T20:34:00.042Z,96913.44
2023-03-29T20:36:30.881Z,96911.03
2023-03-29T20:39:00.283Z,96900.41
2023-03-29T20:41:28.869Z,96910.22
2023-03-29T20:43:59.690Z,96917.28
2023-03-29T20:46:34.133Z,96904.91
2023-03-29T20:49:04.633Z,96917.59
2023-03-29T20:51:33.634Z,96920.66
2023-03-29T20:54:05.157Z,96909.25
2023-03-29T20:56:41.710Z,96911.00
2023-03-29T20:59:12.241Z,96906.47
2023-03-29T21:01:41.049Z,96905.47
2023-03-29T21:04:10.836Z,96897.91
2023-03-29T21:06:40.371Z,96893.72
2023-03-29T21:09:09.005Z,96891.47
2023-03-29T21:11:37.961Z,96880.88
2023-03-29T21:14:06.970Z,96885.69
2023-03-29T21:16:37.035Z,96885.38
2023-03-29T21:19:06.082Z,96865.59
2023-03-29T21:21:35.132Z,96866.53
2023-03-29T21:24:03.952Z,96862.97
2023-03-29T21:26:32.698Z,96858.97
2023-03-29T21:29:01.675Z,96855.09
2023-03-29T21:31:30.294Z,96852.56
2023-03-29T21:34:00.501Z,96846.50
2023-03-29T21:36:29.290Z,96847.28
2023-03-29T21:38:57.904Z,96849.69
2023-03-29T21:41:27.275Z,96841.66
2023-03-29T21:43:55.656Z,96839.41
2023-03-29T21:46:24.857Z,96839.41
2023-03-29T21:48:53.457Z,96845.66
2023-03-29T21:51:23.354Z,96847.59
2023-03-29T21:53:51.828Z,96841.03
2023-03-29T21:56:20.738Z,96839.56
2023-03-29T21:58:49.186Z,96831.09
2023-03-29T22:01:18.189Z,96839.75
2023-03-29T22:03:47.592Z,96831.72
2023-03-29T22:06:17.677Z,96825.78
2023-03-29T22:08:49.578Z,96830.88
2023-03-29T22:11:18.573Z,96826.22
2023-03-29T22:13:47.810Z,96822.03
2023-03-29T22:16:18.356Z,96827.59
2023-03-29T22:18:49.587Z,96828.28
2023-03-29T22:21:22.629Z,96826.47
2023-03-29T22:23:55.272Z,96826.97
2023-03-29T22:26:27.784Z,96829.38
2023-03-29T22:28:57.818Z,96808.88
2023-03-29T22:31:28.540Z,96815.44
2023-03-29T22:33:58.484Z,96810.47
2023-03-29T22:36:30.652Z,96804.88
2023-03-29T22:39:01.379Z,96807.13
2023-03-29T22:41:30.176Z,96805.06
2023-03-29T22:44:01.062Z,96798.47
2023-03-29T22:46:31.280Z,96806.94
2023-03-29T22:48:59.861Z,96788.81
2023-03-29T22:51:28.873Z,96792.03
2023-03-29T22:53:57.264Z,96788.66
2023-03-29T22:56:27.278Z,96786.88
2023-03-29T22:58:55.724Z,96780.00
2023-03-29T23:01:24.511Z,96786.09
2023-03-29T23:03:52.984Z,96786.88
2023-03-29T23:06:21.434Z,96780.16
2023-03-29T23:08:50.139Z,96778.91
2023-03-29T23:11:19.312Z,96781.16
2023-03-29T23:13:49.680Z,96778.59
2023-03-29T23:16:20.847Z,96776.69
2023-03-29T23:18:49.935Z,96777.63
2023-03-29T23:21:18.841Z,96775.41
2023-03-29T23:23:47.176Z,96778.94
2023-03-29T23:26:15.854Z,96772.69
2023-03-29T23:28:44.896Z,96773.78
2023-03-29T23:31:18.614Z,96760.78
2023-03-29T23:33:47.195Z,96764.94
2023-03-29T23:36:19.483Z,96764.75
2023-03-29T23:38:48.990Z,96763.81
2023-03-29T23:41:19.222Z,96761.09
2023-03-29T23:43:48.445Z,96767.19
2023-03-29T23:46:20.516Z,96765.28
2023-03-29T23:48:50.880Z,96757.91
2023-03-29T23:51:23.005Z,96755.50
2023-03-29T23:53:52.469Z,96759.84
2023-03-29T23:56:21.698Z,96761.28
2023-03-29T23:58:50.956Z,96759.69
